createdAt,value
2022-10-13T00:00:27.503Z,92609.88
2022-10-13T00:03:13.387Z,92606.75
2022-10-13T00:05:59.284Z,92606.78
2022-10-13T00:08:45.194Z,92601.41
2022-10-13T00:11:31.048Z,92611.31
2022-10-13T00:14:16.966Z,92611.72
2022-10-13T00:17:02.860Z,92610.69
2022-10-13T00:19:48.749Z,92613.63
2022-10-13T00:22:34.507Z,92611.78
2022-10-13T00:25:20.296Z,92628.53
2022-10-13T00:28:06.182Z,92619.31
2022-10-13T00:30:52.153Z,92626.53
2022-10-13T00:33:37.967Z,92630.22
2022-10-13T00:36:23.932Z,92626.13
2022-10-13T00:39:09.730Z,92630.97
2022-10-13T00:41:55.704Z,92631.75
2022-10-13T00:44:41.631Z,92627.22
2022-10-13T00:47:27.489Z,92631.34
2022-10-13T00:50:13.468Z,92628.28
2022-10-13T00:52:59.366Z,92621.63
2022-10-13T00:55:45.164Z,92622.72
2022-10-13T00:58:31.216Z,92618.56
2022-10-13T01:01:17.022Z,92622.34
2022-10-13T01:04:02.960Z,92618.22
2022-10-13T01:06:48.967Z,92619.50
2022-10-13T01:09:34.945Z,92618.13
2022-10-13T01:12:21.301Z,92625.59
2022-10-13T01:15:07.734Z,92622.94
2022-10-13T01:17:53.542Z,92619.69
2022-10-13T01:20:39.423Z,92616.47
2022-10-13T01:23:27.175Z,92615.59
2022-10-13T01:26:12.899Z,92612.50
2022-10-13T01:28:58.879Z,92612.06
2022-10-13T01:31:44.704Z,92613.41
2022-10-13T01:34:30.677Z,92607.41
2022-10-13T01:37:16.505Z,92611.00
2022-10-13T01:40:02.457Z,92610.81
2022-10-13T01:42:48.334Z,92604.69
2022-10-13T01:45:34.186Z,92599.38
2022-10-13T01:48:19.907Z,92593.81
2022-10-13T01:51:05.899Z,92591.56
2022-10-13T01:53:51.775Z,92583.66
2022-10-13T01:56:37.721Z,92587.47
2022-10-13T01:59:23.671Z,92597.00
2022-10-13T02:02:11.472Z,92590.44
2022-10-13T02:04:57.349Z,92594.38
2022-10-13T02:07:43.247Z,92590.47
2022-10-13T02:10:29.207Z,92593.44
2022-10-13T02:13:15.066Z,92590.47
2022-10-13T02:16:00.823Z,92594.19
2022-10-13T02:18:46.814Z,92594.94
2022-10-13T02:21:32.723Z,92592.34
2022-10-13T02:24:18.621Z,92591.59
2022-10-13T02:27:04.469Z,92582.41
2022-10-13T02:29:50.237Z,92579.31
2022-10-13T02:32:36.061Z,92579.25
2022-10-13T02:35:22.123Z,92579.41
2022-10-13T02:38:07.942Z,92574.63
2022-10-13T02:40:54.092Z,92579.28
2022-10-13T02:43:41.963Z,92574.56
2022-10-13T02:46:27.767Z,92572.03
2022-10-13T02:49:13.599Z,92572.25
2022-10-13T02:51:59.509Z,92574.56
2022-10-13T02:54:45.433Z,92575.03
2022-10-13T02:57:31.239Z,92576.50
2022-10-13T03:00:17.019Z,92575.19
2022-10-13T03:03:02.842Z,92577.00
2022-10-13T03:05:48.896Z,92569.75
2022-10-13T03:08:34.791Z,92570.31
2022-10-13T03:11:20.763Z,92573.47
2022-10-13T03:14:06.653Z,92571.75
2022-10-13T03:16:52.625Z,92575.19
2022-10-13T03:19:38.553Z,92568.00
2022-10-13T03:22:24.339Z,92561.09
2022-10-13T03:25:10.383Z,92559.50
2022-10-13T03:27:56.275Z,92566.56
2022-10-13T03:30:42.103Z,92558.16
2022-10-13T03:33:29.577Z,92556.34
2022-10-13T03:36:15.322Z,92553.06
2022-10-13T03:39:01.135Z,92554.00
2022-10-13T03:41:47.122Z,92551.47
2022-10-13T03:44:32.920Z,92558.19
2022-10-13T03:47:18.787Z,92562.94
2022-10-13T03:50:04.759Z,92563.25
2022-10-13T03:52:50.492Z,92563.00
2022-10-13T03:55:36.251Z,92570.63
2022-10-13T03:58:22.057Z,92570.88
2022-10-13T04:01:07.934Z,92565.09
2022-10-13T04:03:53.796Z,92561.22
2022-10-13T04:06:39.604Z,92560.63
2022-10-13T04:09:25.417Z,92561.72
2022-10-13T04:12:11.295Z,92557.75
2022-10-13T04:14:57.177Z,92568.34
2022-10-13T04:17:42.989Z,92563.78
2022-10-13T04:20:28.707Z,92560.47
2022-10-13T04:23:14.697Z,92556.94
2022-10-13T04:26:00.503Z,92568.03
2022-10-13T04:28:46.352Z,92555.31
2022-10-13T04:31:32.168Z,92557.69
2022-10-13T04:34:17.894Z,92555.47
2022-10-13T04:37:03.810Z,92555.19
2022-10-13T04:39:49.727Z,92558.56
2022-10-13T04:42:35.530Z,92550.88
2022-10-13T04:45:21.390Z,92547.47
2022-10-13T04:48:07.187Z,92550.06
2022-10-13T04:50:53.184Z,92557.41
2022-10-13T04:53:39.053Z,92550.97
2022-10-13T04:56:24.870Z,92547.94
2022-10-13T04:59:10.854Z,92546.72
2022-10-13T05:01:56.621Z,92550.03
2022-10-13T05:04:42.529Z,92543.25
2022-10-13T05:07:28.346Z,92542.59
2022-10-13T05:10:14.149Z,92535.59
2022-10-13T05:12:59.991Z,92540.81
2022-10-13T05:15:45.757Z,92544.06
2022-10-13T05:18:31.574Z,92533.84
2022-10-13T05:21:17.588Z,92541.78
2022-10-13T05:24:03.540Z,92551.97
2022-10-13T05:26:49.376Z,92551.72
2022-10-13T05:29:35.213Z,92542.81
2022-10-13T05:32:21.263Z,92538.47
2022-10-13T05:35:07.840Z,92535.13
2022-10-13T05:37:53.940Z,92531.09
2022-10-13T05:40:39.734Z,92525.03
2022-10-13T05:43:25.538Z,92524.97
2022-10-13T05:46:11.444Z,92518.56
2022-10-13T05:48:57.164Z,92527.03
2022-10-13T05:51:43.071Z,92537.16
2022-10-13T05:54:28.821Z,92537.97
2022-10-13T05:57:14.769Z,92544.34
2022-10-13T06:00:02.751Z,92541.09
2022-10-13T06:02:48.565Z,92534.84
2022-10-13T06:05:34.517Z,92533.75
2022-10-13T06:08:20.434Z,92530.38
2022-10-13T06:11:06.498Z,92525.97
2022-10-13T06:13:52.375Z,92530.78
2022-10-13T06:16:38.226Z,92536.41
2022-10-13T06:19:24.072Z,92538.31
2022-10-13T06:22:10.132Z,92544.41
2022-10-13T06:24:55.985Z,92544.19
2022-10-13T06:27:41.793Z,92547.34
2022-10-13T06:30:27.712Z,92541.84
2022-10-13T06:33:13.463Z,92536.91
2022-10-13T06:35:59.471Z,92540.97
2022-10-13T06:38:45.286Z,92531.88
2022-10-13T06:41:31.280Z,92529.09
2022-10-13T06:44:17.092Z,92536.47
2022-10-13T06:47:02.973Z,92538.78
2022-10-13T06:49:48.906Z,92547.06
2022-10-13T06:52:34.758Z,92541.75
2022-10-13T06:55:20.577Z,92535.72
2022-10-13T06:58:06.599Z,92540.78
2022-10-13T07:00:52.391Z,92542.69
2022-10-13T07:03:38.313Z,92537.75
2022-10-13T07:06:24.309Z,92551.06
2022-10-13T07:09:10.246Z,92545.41
2022-10-13T07:11:56.176Z,92540.91
2022-10-13T07:14:43.881Z,92538.97
2022-10-13T07:17:29.869Z,92542.41
2022-10-13T07:20:15.926Z,92543.16
2022-10-13T07:23:01.666Z,92530.94
2022-10-13T07:25:47.859Z,92526.75
2022-10-13T07:28:34.200Z,92521.38
2022-10-13T07:31:19.982Z,92524.44
2022-10-13T07:34:05.787Z,92530.00
2022-10-13T07:36:51.743Z,92529.69
2022-10-13T07:39:37.620Z,92529.97
2022-10-13T07:42:23.659Z,92529.22
2022-10-13T07:45:09.393Z,92532.63
2022-10-13T07:47:55.280Z,92534.44
2022-10-13T07:50:41.109Z,92529.72
2022-10-13T07:53:26.822Z,92531.53
2022-10-13T07:56:12.570Z,92521.63
2022-10-13T07:58:58.390Z,92522.25
2022-10-13T08:01:44.284Z,92518.63
2022-10-13T08:04:30.327Z,92521.19
2022-10-13T08:07:16.185Z,92515.09
2022-10-13T08:10:02.123Z,92524.94
2022-10-13T08:12:48.033Z,92516.31
2022-10-13T08:15:33.796Z,92521.19
2022-10-13T08:18:19.721Z,92529.25
2022-10-13T08:21:39.279Z,92533.72
2022-10-13T08:24:11.759Z,92539.25
2022-10-13T08:26:57.693Z,92529.25
2022-10-13T08:29:43.611Z,92535.06
2022-10-13T08:32:31.362Z,92531.97
2022-10-13T08:35:17.391Z,92526.91
2022-10-13T08:38:03.333Z,92528.41
2022-10-13T08:40:49.205Z,92534.53
2022-10-13T08:43:35.171Z,92544.75
2022-10-13T08:46:21.015Z,92540.09
2022-10-13T08:49:06.882Z,92534.94
2022-10-13T08:51:52.912Z,92542.28
2022-10-13T08:54:38.759Z,92535.97
2022-10-13T08:57:24.700Z,92525.38
2022-10-13T09:00:10.634Z,92510.22
2022-10-13T09:02:56.553Z,92498.94
2022-10-13T09:05:42.555Z,92516.78
2022-10-13T09:08:28.420Z,92525.88
2022-10-13T09:11:14.311Z,92536.59
2022-10-13T09:14:00.331Z,92521.78
2022-10-13T09:16:46.199Z,92517.78
2022-10-13T09:19:32.257Z,92523.69
2022-10-13T09:22:18.280Z,92525.47
2022-10-13T09:25:04.372Z,92528.34
2022-10-13T09:27:50.289Z,92530.63
2022-10-13T09:30:36.123Z,92531.66
2022-10-13T09:33:21.956Z,92536.13
2022-10-13T09:36:07.823Z,92526.38
2022-10-13T09:38:53.686Z,92526.31
2022-10-13T09:41:39.540Z,92528.59
2022-10-13T09:44:27.043Z,92524.69
2022-10-13T09:47:13.624Z,92533.16
2022-10-13T09:50:04.690Z,92536.84
2022-10-13T09:52:53.512Z,92532.38
2022-10-13T09:55:39.375Z,92525.69
2022-10-13T09:58:27.278Z,92518.81
2022-10-13T10:01:13.197Z,92512.03
2022-10-13T10:04:01.349Z,92512.69
2022-10-13T10:06:47.335Z,92517.78
2022-10-13T10:09:33.201Z,92514.72
2022-10-13T10:12:20.301Z,92505.16
2022-10-13T10:15:07.909Z,92512.03
2022-10-13T10:17:53.939Z,92500.69
2022-10-13T10:20:39.885Z,92498.91
2022-10-13T10:23:25.689Z,92506.16
2022-10-13T10:26:11.633Z,92503.16
2022-10-13T10:28:57.555Z,92503.84
2022-10-13T10:31:43.526Z,92498.84
2022-10-13T10:34:29.556Z,92494.28
2022-10-13T10:37:15.521Z,92489.91
2022-10-13T10:40:01.628Z,92483.31
2022-10-13T10:42:51.963Z,92494.06
2022-10-13T10:45:38.440Z,92493.69
2022-10-13T10:48:24.371Z,92486.03
2022-10-13T10:51:10.330Z,92492.50
2022-10-13T10:53:56.205Z,92496.34
2022-10-13T10:56:42.188Z,92494.69
2022-10-13T10:59:28.116Z,92493.13
2022-10-13T11:02:14.001Z,92498.63
2022-10-13T11:05:05.403Z,92493.53
2022-10-13T11:07:52.668Z,92485.47
2022-10-13T11:10:38.494Z,92479.06
2022-10-13T11:13:24.571Z,92477.06
2022-10-13T11:16:10.374Z,92475.16
2022-10-13T11:18:56.238Z,92480.63
2022-10-13T11:21:42.264Z,92479.19
2022-10-13T11:24:28.206Z,92479.09
2022-10-13T11:27:14.036Z,92474.59
2022-10-13T11:29:59.995Z,92459.28
2022-10-13T11:32:45.864Z,92462.97
2022-10-13T11:35:31.725Z,92457.41
2022-10-13T11:38:18.060Z,92450.13
2022-10-13T11:41:04.041Z,92438.38
2022-10-13T11:43:49.922Z,92430.94
2022-10-13T11:46:35.765Z,92420.25
2022-10-13T11:49:21.524Z,92417.97
2022-10-13T11:52:09.491Z,92427.91
2022-10-13T11:54:55.463Z,92426.72
2022-10-13T11:57:41.271Z,92428.53
2022-10-13T12:00:27.246Z,92429.13
2022-10-13T12:03:13.209Z,92419.22
2022-10-13T12:05:59.046Z,92415.56
2022-10-13T12:08:45.012Z,92408.56
2022-10-13T12:11:30.711Z,92411.41
2022-10-13T12:14:16.686Z,92411.94
2022-10-13T12:17:02.449Z,92409.38
2022-10-13T12:19:48.330Z,92397.44
2022-10-13T12:22:39.329Z,92406.09
2022-10-13T12:25:26.303Z,92405.56
2022-10-13T12:28:12.063Z,92397.78
2022-10-13T12:30:58.149Z,92384.97
2022-10-13T12:33:44.370Z,92382.56
2022-10-13T12:36:32.574Z,92377.88
2022-10-13T12:39:18.500Z,92377.34
2022-10-13T12:42:04.493Z,92376.03
2022-10-13T12:44:50.189Z,92374.78
2022-10-13T12:47:36.189Z,92374.44
2022-10-13T12:50:22.123Z,92385.06
2022-10-13T12:53:07.969Z,92390.91
2022-10-13T12:55:55.932Z,92378.75
2022-10-13T12:58:41.978Z,92383.91
2022-10-13T13:01:27.900Z,92380.63
2022-10-13T13:04:13.764Z,92384.81
2022-10-13T13:06:59.567Z,92398.41
2022-10-13T13:09:45.509Z,92397.13
2022-10-13T13:12:31.399Z,92403.94
2022-10-13T13:15:17.273Z,92392.03
2022-10-13T13:18:05.271Z,92391.75
2022-10-13T13:20:51.204Z,92388.25
2022-10-13T13:23:37.099Z,92391.91
2022-10-13T13:26:23.049Z,92392.28
2022-10-13T13:29:08.849Z,92387.56
2022-10-13T13:31:54.713Z,92388.19
2022-10-13T13:34:40.722Z,92376.56
2022-10-13T13:37:26.518Z,92380.53
2022-10-13T13:40:12.513Z,92370.41
2022-10-13T13:42:58.450Z,92360.72
2022-10-13T13:45:44.414Z,92369.16
2022-10-13T13:48:30.821Z,92363.72
2022-10-13T13:51:16.610Z,92347.31
2022-10-13T13:54:04.553Z,92351.16
2022-10-13T13:56:50.436Z,92345.00
2022-10-13T13:59:36.249Z,92332.34
2022-10-13T14:02:22.204Z,92340.91
2022-10-13T14:05:08.218Z,92344.78
2022-10-13T14:07:54.074Z,92347.63
2022-10-13T14:10:39.945Z,92341.84
2022-10-13T14:13:25.877Z,92338.16
2022-10-13T14:16:11.688Z,92339.59
2022-10-13T14:18:57.576Z,92337.47
2022-10-13T14:21:44.471Z,92332.69
2022-10-13T14:24:30.351Z,92337.22
2022-10-13T14:27:16.201Z,92346.66
2022-10-13T14:30:02.228Z,92346.09
2022-10-13T14:32:48.216Z,92337.56
2022-10-13T14:35:34.064Z,92336.59
2022-10-13T14:38:19.908Z,92328.72
2022-10-13T14:41:05.775Z,92323.75
2022-10-13T14:43:51.571Z,92318.31
2022-10-13T14:46:37.521Z,92323.56
2022-10-13T14:49:23.496Z,92326.94
2022-10-13T14:52:09.394Z,92329.94
2022-10-13T14:54:55.427Z,92335.25
2022-10-13T14:57:41.277Z,92337.03
2022-10-13T15:00:27.247Z,92337.78
2022-10-13T15:03:13.380Z,92337.38
2022-10-13T15:05:59.155Z,92344.31
2022-10-13T15:08:45.031Z,92343.31
2022-10-13T15:11:30.868Z,92341.88
2022-10-13T15:14:16.824Z,92327.16
2022-10-13T15:17:02.820Z,92325.09
2022-10-13T15:19:48.592Z,92327.31
2022-10-13T15:22:34.586Z,92334.81
2022-10-13T15:25:20.473Z,92332.59
2022-10-13T15:28:06.420Z,92329.47
2022-10-13T15:30:52.319Z,92336.03
2022-10-13T15:33:46.302Z,92330.69
2022-10-13T15:36:32.224Z,92335.09
2022-10-13T15:39:20.002Z,92334.63
2022-10-13T15:42:05.925Z,92335.81
2022-10-13T15:45:10.811Z,92332.50
2022-10-13T15:47:57.305Z,92330.72
2022-10-13T15:50:43.292Z,92337.72
2022-10-13T15:53:29.256Z,92342.06
2022-10-13T15:56:15.076Z,92342.63
2022-10-13T15:59:01.113Z,92346.88
2022-10-13T16:01:46.947Z,92344.53
2022-10-13T16:04:37.258Z,92342.09
2022-10-13T16:07:23.815Z,92338.38
2022-10-13T16:10:09.760Z,92340.31
2022-10-13T16:12:55.454Z,92340.53
2022-10-13T16:15:41.205Z,92339.75
2022-10-13T16:18:27.243Z,92339.16
2022-10-13T16:21:18.075Z,92336.78
2022-10-13T16:24:04.497Z,92340.78
2022-10-13T16:26:50.469Z,92339.59
2022-10-13T16:29:36.369Z,92339.19
2022-10-13T16:32:22.726Z,92340.44
2022-10-13T16:35:08.759Z,92342.09
2022-10-13T16:37:54.668Z,92345.97
2022-10-13T16:40:40.551Z,92352.56
2022-10-13T16:43:26.376Z,92344.91
2022-10-13T16:46:12.378Z,92346.25
2022-10-13T16:48:58.259Z,92343.34
2022-10-13T16:51:44.100Z,92344.13
2022-10-13T16:54:30.086Z,92344.09
2022-10-13T16:57:16.084Z,92341.72
2022-10-13T17:00:02.081Z,92345.66
2022-10-13T17:02:48.017Z,92351.16
2022-10-13T17:05:33.872Z,92348.66
2022-10-13T17:08:19.882Z,92366.00
2022-10-13T17:11:05.930Z,92361.91
2022-10-13T17:13:52.057Z,92352.50
2022-10-13T17:16:38.172Z,92356.94
2022-10-13T17:19:24.205Z,92347.91
2022-10-13T17:22:10.068Z,92346.97
2022-10-13T17:24:55.982Z,92348.63
2022-10-13T17:27:41.899Z,92344.75
2022-10-13T17:30:27.803Z,92333.69
2022-10-13T17:33:13.648Z,92343.34
2022-10-13T17:35:59.439Z,92345.09
2022-10-13T17:38:45.599Z,92345.34
2022-10-13T17:41:31.616Z,92348.03
2022-10-13T17:44:17.502Z,92348.53
2022-10-13T17:47:03.463Z,92347.41
2022-10-13T17:49:49.226Z,92356.72
2022-10-13T17:52:35.276Z,92357.69
2022-10-13T17:55:21.223Z,92360.34
2022-10-13T17:58:07.092Z,92361.16
2022-10-13T18:01:12.327Z,92362.59
2022-10-13T18:03:59.781Z,92364.34
2022-10-13T18:06:46.358Z,92366.63
2022-10-13T18:09:32.273Z,92364.34
2022-10-13T18:12:18.201Z,92363.31
2022-10-13T18:15:04.017Z,92352.78
2022-10-13T18:17:50.039Z,92358.41
2022-10-13T18:20:35.986Z,92344.78
2022-10-13T18:23:21.757Z,92359.41
2022-10-13T18:26:07.646Z,92360.38
2022-10-13T18:28:53.519Z,92363.66
2022-10-13T18:31:39.629Z,92356.06
2022-10-13T18:34:25.565Z,92361.91
2022-10-13T18:37:11.359Z,92351.84
2022-10-13T18:39:57.249Z,92349.91
2022-10-13T18:42:46.580Z,92348.81
2022-10-13T18:45:33.456Z,92339.03
2022-10-13T18:48:19.292Z,92348.34
2022-10-13T18:51:05.308Z,92345.06
2022-10-13T18:53:51.130Z,92344.44
2022-10-13T18:56:37.201Z,92359.78
2022-10-13T18:59:23.206Z,92360.16
2022-10-13T19:02:09.000Z,92354.84
2022-10-13T19:04:54.767Z,92362.03
2022-10-13T19:07:40.582Z,92349.16
2022-10-13T19:10:26.429Z,92358.25
2022-10-13T19:13:12.377Z,92355.31
2022-10-13T19:15:58.173Z,92356.78
2022-10-13T19:18:44.134Z,92362.06
2022-10-13T19:21:30.096Z,92359.78
2022-10-13T19:24:15.919Z,92357.88
2022-10-13T19:27:01.850Z,92356.78
2022-10-13T19:29:47.780Z,92359.44
2022-10-13T19:32:33.668Z,92367.75
2022-10-13T19:35:19.633Z,92364.34
2022-10-13T19:38:05.409Z,92364.66
2022-10-13T19:40:51.598Z,92367.28
2022-10-13T19:43:37.430Z,92359.63
2022-10-13T19:46:23.185Z,92370.16
2022-10-13T19:49:09.077Z,92376.16
2022-10-13T19:51:54.889Z,92365.56
2022-10-13T19:54:40.868Z,92364.78
2022-10-13T19:57:26.739Z,92361.25
2022-10-13T20:00:12.725Z,92360.25
2022-10-13T20:02:58.648Z,92357.94
2022-10-13T20:05:44.571Z,92358.16
2022-10-13T20:08:30.434Z,92355.31
2022-10-13T20:11:20.677Z,92352.72
2022-10-13T20:14:09.171Z,92356.59
2022-10-13T20:16:54.934Z,92365.00
2022-10-13T20:19:40.798Z,92368.00
2022-10-13T20:22:26.716Z,92366.94
2022-10-13T20:25:12.466Z,92360.75
2022-10-13T20:27:58.447Z,92360.75
2022-10-13T20:30:44.338Z,92363.47
2022-10-13T20:33:30.209Z,92370.34
2022-10-13T20:36:16.193Z,92372.28
2022-10-13T20:39:02.033Z,92363.53
2022-10-13T20:41:48.046Z,92368.13
2022-10-13T20:44:33.880Z,92365.78
2022-10-13T20:47:20.015Z,92364.50
2022-10-13T20:50:06.275Z,92360.53
2022-10-13T20:52:52.170Z,92356.03
2022-10-13T20:55:41.999Z,92358.06
2022-10-13T20:58:29.983Z,92366.38
2022-10-13T21:01:15.862Z,92365.16
2022-10-13T21:04:01.849Z,92357.56
2022-10-13T21:06:47.747Z,92366.78
2022-10-13T21:09:33.597Z,92359.47
2022-10-13T21:12:19.561Z,92367.06
2022-10-13T21:15:05.487Z,92367.09
2022-10-13T21:17:51.198Z,92374.75
2022-10-13T21:20:37.173Z,92371.69
2022-10-13T21:23:23.089Z,92377.00
2022-10-13T21:26:08.883Z,92374.03
2022-10-13T21:28:54.944Z,92364.34
2022-10-13T21:31:40.738Z,92370.34
2022-10-13T21:34:26.603Z,92363.94
2022-10-13T21:37:12.555Z,92371.78
2022-10-13T21:39:58.298Z,92371.13
2022-10-13T21:42:44.248Z,92369.13
2022-10-13T21:45:30.089Z,92363.47
2022-10-13T21:48:15.850Z,92367.84
2022-10-13T21:51:01.687Z,92365.03
2022-10-13T21:53:47.519Z,92375.97
2022-10-13T21:56:33.305Z,92370.38
2022-10-13T21:59:19.191Z,92369.34
2022-10-13T22:02:05.076Z,92364.84
2022-10-13T22:04:53.075Z,92366.97
2022-10-13T22:07:39.183Z,92369.44
2022-10-13T22:10:24.958Z,92376.66
2022-10-13T22:13:10.867Z,92368.25
2022-10-13T22:15:56.625Z,92366.44
2022-10-13T22:18:42.389Z,92364.16
2022-10-13T22:21:28.331Z,92359.22
2022-10-13T22:24:14.250Z,92357.94
2022-10-13T22:27:00.027Z,92360.78
2022-10-13T22:29:45.836Z,92349.16
2022-10-13T22:32:31.740Z,92359.41
2022-10-13T22:35:17.683Z,92363.53
2022-10-13T22:38:03.477Z,92351.53
2022-10-13T22:40:49.513Z,92359.63
2022-10-13T22:43:35.252Z,92354.47
2022-10-13T22:46:21.005Z,92355.41
2022-10-13T22:49:06.922Z,92347.25
2022-10-13T22:51:52.750Z,92344.41
2022-10-13T22:54:38.557Z,92348.19
2022-10-13T22:57:24.526Z,92342.28
2022-10-13T23:00:10.207Z,92339.63
2022-10-13T23:02:56.136Z,92333.69
2022-10-13T23:05:41.910Z,92329.59
2022-10-13T23:08:27.652Z,92331.53
2022-10-13T23:11:13.569Z,92329.56
2022-10-13T23:13:59.495Z,92324.78
2022-10-13T23:16:45.439Z,92327.69
2022-10-13T23:19:31.285Z,92323.09
2022-10-13T23:22:17.095Z,92309.69
2022-10-13T23:25:02.920Z,92314.03
2022-10-13T23:27:48.765Z,92311.69
2022-10-13T23:30:34.694Z,92317.59
2022-10-13T23:33:20.539Z,92307.69
2022-10-13T23:36:06.336Z,92311.75
2022-10-13T23:38:52.274Z,92313.44
2022-10-13T23:41:38.233Z,92309.19
2022-10-13T23:44:24.047Z,92315.91
2022-10-13T23:47:10.039Z,92311.00
2022-10-13T23:49:56.281Z,92300.72
2022-10-13T23:52:42.109Z,92301.91
2022-10-13T23:55:28.019Z,92303.69
2022-10-13T23:58:13.770Z,92300.63
